sensor_id;sensor_type;location;lat;lon;timestamp;P1;durP1;ratioP1;P2;durP2;ratioP2
75246;SDS011;63844;50.042;19.224;2022-12-18T00:01:03;37.60;;;12.50;;
75246;SDS011;63844;50.042;19.224;2022-12-18T00:03:42;42.90;;;12.80;;
75246;SDS011;63844;50.042;19.224;2022-12-18T00:06:08;49.70;;;13.00;;
75246;SDS011;63844;50.042;19.224;2022-12-18T00:08:35;37.80;;;11.50;;
75246;SDS011;63844;50.042;19.224;2022-12-18T00:11:05;19.30;;;5.60;;
75246;SDS011;63844;50.042;19.224;2022-12-18T00:13:33;42.80;;;12.50;;
75246;SDS011;63844;50.042;19.224;2022-12-18T00:16:01;44.30;;;13.30;;
75246;SDS011;63844;50.042;19.224;2022-12-18T00:18:30;39.30;;;11.50;;
75246;SDS011;63844;50.042;19.224;2022-12-18T00:21:00;39.10;;;11.30;;
75246;SDS011;63844;50.042;19.224;2022-12-18T00:23:28;24.20;;;8.10;;
75246;SDS011;63844;50.042;19.224;2022-12-18T00:26:02;50.00;;;14.10;;
75246;SDS011;63844;50.042;19.224;2022-12-18T00:28:32;45.30;;;13.10;;
75246;SDS011;63844;50.042;19.224;2022-12-18T00:31:03;39.90;;;11.50;;
75246;SDS011;63844;50.042;19.224;2022-12-18T00:33:30;47.60;;;10.80;;
75246;SDS011;63844;50.042;19.224;2022-12-18T00:36:00;39.60;;;10.40;;
75246;SDS011;63844;50.042;19.224;2022-12-18T00:38:35;34.50;;;10.90;;
75246;SDS011;63844;50.042;19.224;2022-12-18T00:41:02;43.80;;;11.70;;
75246;SDS011;63844;50.042;19.224;2022-12-18T00:43:28;32.20;;;9.90;;
75246;SDS011;63844;50.042;19.224;2022-12-18T00:45:54;40.40;;;10.80;;
75246;SDS011;63844;50.042;19.224;2022-12-18T00:48:21;28.40;;;11.20;;
75246;SDS011;63844;50.042;19.224;2022-12-18T00:50:48;37.60;;;11.30;;
75246;SDS011;63844;50.042;19.224;2022-12-18T00:53:15;40.90;;;13.20;;
75246;SDS011;63844;50.042;19.224;2022-12-18T00:55:43;44.70;;;11.70;;
75246;SDS011;63844;50.042;19.224;2022-12-18T00:58:10;39.90;;;11.00;;
75246;SDS011;63844;50.042;19.224;2022-12-18T01:00:38;33.80;;;9.80;;
75246;SDS011;63844;50.042;19.224;2022-12-18T01:03:04;41.30;;;11.70;;
75246;SDS011;63844;50.042;19.224;2022-12-18T01:05:31;44.60;;;12.20;;
75246;SDS011;63844;50.042;19.224;2022-12-18T01:10:25;27.70;;;9.30;;
75246;SDS011;63844;50.042;19.224;2022-12-18T01:12:52;41.40;;;11.20;;
75246;SDS011;63844;50.042;19.224;2022-12-18T01:15:18;37.90;;;9.90;;
75246;SDS011;63844;50.042;19.224;2022-12-18T01:17:45;43.40;;;11.60;;
75246;SDS011;63844;50.042;19.224;2022-12-18T01:20:12;36.90;;;11.80;;
75246;SDS011;63844;50.042;19.224;2022-12-18T01:22:39;37.20;;;10.50;;
75246;SDS011;63844;50.042;19.224;2022-12-18T01:25:05;37.10;;;9.80;;
75246;SDS011;63844;50.042;19.224;2022-12-18T01:27:33;37.70;;;12.00;;
75246;SDS011;63844;50.042;19.224;2022-12-18T01:30:00;35.90;;;9.80;;
75246;SDS011;63844;50.042;19.224;2022-12-18T01:32:29;39.70;;;11.80;;
75246;SDS011;63844;50.042;19.224;2022-12-18T01:34:56;38.60;;;11.00;;
75246;SDS011;63844;50.042;19.224;2022-12-18T01:37:23;38.70;;;10.80;;
75246;SDS011;63844;50.042;19.224;2022-12-18T01:39:49;40.60;;;13.00;;
75246;SDS011;63844;50.042;19.224;2022-12-18T01:42:16;40.90;;;10.50;;
75246;SDS011;63844;50.042;19.224;2022-12-18T01:47:44;37.90;;;11.30;;
75246;SDS011;63844;50.042;19.224;2022-12-18T01:50:14;23.20;;;5.60;;
75246;SDS011;63844;50.042;19.224;2022-12-18T01:52:45;41.30;;;10.60;;
75246;SDS011;63844;50.042;19.224;2022-12-18T01:55:15;41.60;;;11.60;;
75246;SDS011;63844;50.042;19.224;2022-12-18T01:57:44;35.50;;;11.00;;
75246;SDS011;63844;50.042;19.224;2022-12-18T02:00:12;27.50;;;8.60;;
75246;SDS011;63844;50.042;19.224;2022-12-18T02:02:41;36.90;;;11.20;;
75246;SDS011;63844;50.042;19.224;2022-12-18T02:05:09;23.20;;;8.30;;
75246;SDS011;63844;50.042;19.224;2022-12-18T02:07:47;46.00;;;11.20;;
75246;SDS011;63844;50.042;19.224;2022-12-18T02:10:31;35.00;;;11.00;;
75246;SDS011;63844;50.042;19.224;2022-12-18T02:13:12;35.20;;;10.10;;
75246;SDS011;63844;50.042;19.224;2022-12-18T02:15:51;30.40;;;9.30;;
75246;SDS011;63844;50.042;19.224;2022-12-18T02:18:27;34.60;;;10.30;;
75246;SDS011;63844;50.042;19.224;2022-12-18T02:21:00;36.80;;;11.10;;
75246;SDS011;63844;50.042;19.224;2022-12-18T02:23:41;35.80;;;11.80;;
75246;SDS011;63844;50.042;19.224;2022-12-18T02:26:22;37.00;;;11.20;;
75246;SDS011;63844;50.042;19.224;2022-12-18T02:29:05;31.80;;;10.10;;
75246;SDS011;63844;50.042;19.224;2022-12-18T02:31:37;37.60;;;10.70;;
75246;SDS011;63844;50.042;19.224;2022-12-18T02:34:08;30.20;;;8.80;;
75246;SDS011;63844;50.042;19.224;2022-12-18T02:36:38;38.30;;;9.60;;
75246;SDS011;63844;50.042;19.224;2022-12-18T02:39:07;35.60;;;10.00;;
75246;SDS011;63844;50.042;19.224;2022-12-18T02:41:36;39.40;;;10.40;;
75246;SDS011;63844;50.042;19.224;2022-12-18T02:44:09;34.30;;;9.60;;
75246;SDS011;63844;50.042;19.224;2022-12-18T02:46:39;6.80;;;2.60;;
75246;SDS011;63844;50.042;19.224;2022-12-18T02:58:13;24.00;;;5.90;;
75246;SDS011;63844;50.042;19.224;2022-12-18T03:00:47;34.70;;;10.70;;
75246;SDS011;63844;50.042;19.224;2022-12-18T03:03:24;34.80;;;10.10;;
75246;SDS011;63844;50.042;19.224;2022-12-18T03:05:57;37.50;;;9.70;;
75246;SDS011;63844;50.042;19.224;2022-12-18T03:08:32;41.20;;;10.00;;
75246;SDS011;63844;50.042;19.224;2022-12-18T03:11:05;21.10;;;6.00;;
75246;SDS011;63844;50.042;19.224;2022-12-18T03:16:12;29.40;;;8.10;;
75246;SDS011;63844;50.042;19.224;2022-12-18T03:18:46;27.30;;;7.70;;
75246;SDS011;63844;50.042;19.224;2022-12-18T03:21:17;33.40;;;9.80;;
75246;SDS011;63844;50.042;19.224;2022-12-18T03:23:48;19.60;;;5.80;;
75246;SDS011;63844;50.042;19.224;2022-12-18T03:26:19;40.40;;;10.10;;
75246;SDS011;63844;50.042;19.224;2022-12-18T03:28:54;36.70;;;10.30;;
75246;SDS011;63844;50.042;19.224;2022-12-18T03:31:25;45.30;;;10.80;;
75246;SDS011;63844;50.042;19.224;2022-12-18T03:33:57;34.30;;;10.00;;
75246;SDS011;63844;50.042;19.224;2022-12-18T03:36:25;34.60;;;10.20;;
75246;SDS011;63844;50.042;19.224;2022-12-18T03:38:53;33.20;;;8.90;;
75246;SDS011;63844;50.042;19.224;2022-12-18T03:41:28;37.90;;;9.70;;
75246;SDS011;63844;50.042;19.224;2022-12-18T03:44:02;30.00;;;9.30;;
75246;SDS011;63844;50.042;19.224;2022-12-18T03:49:47;36.40;;;10.60;;
75246;SDS011;63844;50.042;19.224;2022-12-18T03:54:55;36.10;;;11.30;;
75246;SDS011;63844;50.042;19.224;2022-12-18T03:57:25;35.00;;;9.20;;
75246;SDS011;63844;50.042;19.224;2022-12-18T03:59:55;26.70;;;7.60;;
75246;SDS011;63844;50.042;19.224;2022-12-18T04:02:26;34.70;;;11.00;;
75246;SDS011;63844;50.042;19.224;2022-12-18T04:04:56;35.30;;;11.00;;
75246;SDS011;63844;50.042;19.224;2022-12-18T04:07:26;40.20;;;11.80;;
75246;SDS011;63844;50.042;19.224;2022-12-18T04:09:53;39.50;;;10.90;;
75246;SDS011;63844;50.042;19.224;2022-12-18T04:12:25;48.00;;;12.70;;
75246;SDS011;63844;50.042;19.224;2022-12-18T04:14:52;28.50;;;9.00;;
75246;SDS011;63844;50.042;19.224;2022-12-18T04:17:19;26.50;;;8.30;;
75246;SDS011;63844;50.042;19.224;2022-12-18T04:19:46;31.50;;;7.70;;
75246;SDS011;63844;50.042;19.224;2022-12-18T04:22:12;37.90;;;10.60;;
75246;SDS011;63844;50.042;19.224;2022-12-18T04:24:39;39.00;;;11.00;;
75246;SDS011;63844;50.042;19.224;2022-12-18T04:27:05;43.10;;;11.20;;
75246;SDS011;63844;50.042;19.224;2022-12-18T04:29:31;32.50;;;9.40;;
75246;SDS011;63844;50.042;19.224;2022-12-18T04:31:58;46.10;;;12.30;;
75246;SDS011;63844;50.042;19.224;2022-12-18T04:34:24;39.90;;;12.10;;
75246;SDS011;63844;50.042;19.224;2022-12-18T04:36:51;38.70;;;11.70;;
75246;SDS011;63844;50.042;19.224;2022-12-18T04:39:17;35.80;;;9.70;;
75246;SDS011;63844;50.042;19.224;2022-12-18T04:41:44;42.20;;;12.20;;
75246;SDS011;63844;50.042;19.224;2022-12-18T04:44:10;32.10;;;10.20;;
75246;SDS011;63844;50.042;19.224;2022-12-18T04:46:36;26.70;;;7.10;;
75246;SDS011;63844;50.042;19.224;2022-12-18T04:49:03;43.60;;;11.80;;
75246;SDS011;63844;50.042;19.224;2022-12-18T04:51:29;47.00;;;11.70;;
75246;SDS011;63844;50.042;19.224;2022-12-18T04:53:56;45.80;;;12.50;;
75246;SDS011;63844;50.042;19.224;2022-12-18T04:56:22;48.10;;;12.80;;
75246;SDS011;63844;50.042;19.224;2022-12-18T04:58:49;44.60;;;13.00;;
75246;SDS011;63844;50.042;19.224;2022-12-18T05:01:16;31.00;;;8.60;;
75246;SDS011;63844;50.042;19.224;2022-12-18T05:03:44;32.50;;;8.50;;
75246;SDS011;63844;50.042;19.224;2022-12-18T05:06:10;41.10;;;11.70;;
75246;SDS011;63844;50.042;19.224;2022-12-18T05:08:37;41.80;;;11.00;;
75246;SDS011;63844;50.042;19.224;2022-12-18T05:11:04;43.10;;;12.00;;
75246;SDS011;63844;50.042;19.224;2022-12-18T05:13:35;38.90;;;10.60;;
75246;SDS011;63844;50.042;19.224;2022-12-18T05:16:02;47.70;;;12.60;;
75246;SDS011;63844;50.042;19.224;2022-12-18T05:18:29;41.00;;;10.70;;
75246;SDS011;63844;50.042;19.224;2022-12-18T05:20:56;41.70;;;11.20;;
75246;SDS011;63844;50.042;19.224;2022-12-18T05:23:23;42.00;;;12.20;;
75246;SDS011;63844;50.042;19.224;2022-12-18T05:25:51;46.80;;;13.10;;
75246;SDS011;63844;50.042;19.224;2022-12-18T05:28:19;44.20;;;11.60;;
75246;SDS011;63844;50.042;19.224;2022-12-18T05:30:53;21.50;;;5.50;;
75246;SDS011;63844;50.042;19.224;2022-12-18T05:33:22;49.60;;;12.80;;
75246;SDS011;63844;50.042;19.224;2022-12-18T05:35:54;37.60;;;11.70;;
75246;SDS011;63844;50.042;19.224;2022-12-18T05:38:23;49.20;;;12.90;;
75246;SDS011;63844;50.042;19.224;2022-12-18T05:40:52;43.60;;;11.70;;
75246;SDS011;63844;50.042;19.224;2022-12-18T05:43:19;54.60;;;15.10;;
75246;SDS011;63844;50.042;19.224;2022-12-18T05:45:47;31.80;;;9.30;;
75246;SDS011;63844;50.042;19.224;2022-12-18T05:48:14;23.90;;;6.30;;
75246;SDS011;63844;50.042;19.224;2022-12-18T05:50:42;50.10;;;13.40;;
75246;SDS011;63844;50.042;19.224;2022-12-18T05:53:13;53.00;;;14.80;;
75246;SDS011;63844;50.042;19.224;2022-12-18T05:55:41;39.70;;;9.80;;
75246;SDS011;63844;50.042;19.224;2022-12-18T06:00:37;47.90;;;13.80;;
75246;SDS011;63844;50.042;19.224;2022-12-18T06:03:09;41.80;;;12.90;;
75246;SDS011;63844;50.042;19.224;2022-12-18T06:05:37;46.70;;;13.20;;
75246;SDS011;63844;50.042;19.224;2022-12-18T06:08:05;40.70;;;11.60;;
75246;SDS011;63844;50.042;19.224;2022-12-18T06:10:31;40.30;;;10.70;;
75246;SDS011;63844;50.042;19.224;2022-12-18T06:12:58;48.60;;;13.00;;
75246;SDS011;63844;50.042;19.224;2022-12-18T06:15:25;39.00;;;13.00;;
75246;SDS011;63844;50.042;19.224;2022-12-18T06:17:51;40.00;;;12.30;;
75246;SDS011;63844;50.042;19.224;2022-12-18T06:20:17;26.60;;;8.80;;
75246;SDS011;63844;50.042;19.224;2022-12-18T06:22:44;38.60;;;10.80;;
75246;SDS011;63844;50.042;19.224;2022-12-18T06:25:11;39.70;;;13.10;;
75246;SDS011;63844;50.042;19.224;2022-12-18T06:27:37;43.90;;;12.30;;
75246;SDS011;63844;50.042;19.224;2022-12-18T06:30:05;41.60;;;12.50;;
75246;SDS011;63844;50.042;19.224;2022-12-18T06:32:32;39.50;;;10.70;;
75246;SDS011;63844;50.042;19.224;2022-12-18T06:34:59;46.30;;;11.90;;
75246;SDS011;63844;50.042;19.224;2022-12-18T06:37:25;35.90;;;10.90;;
75246;SDS011;63844;50.042;19.224;2022-12-18T06:39:52;39.90;;;11.60;;
75246;SDS011;63844;50.042;19.224;2022-12-18T06:42:19;39.90;;;10.60;;
75246;SDS011;63844;50.042;19.224;2022-12-18T06:44:46;53.40;;;15.60;;
75246;SDS011;63844;50.042;19.224;2022-12-18T06:47:12;38.10;;;11.60;;
75246;SDS011;63844;50.042;19.224;2022-12-18T06:49:38;38.90;;;12.30;;
75246;SDS011;63844;50.042;19.224;2022-12-18T06:52:05;43.70;;;11.90;;
75246;SDS011;63844;50.042;19.224;2022-12-18T06:54:31;42.90;;;11.70;;
75246;SDS011;63844;50.042;19.224;2022-12-18T06:56:57;44.00;;;12.70;;
75246;SDS011;63844;50.042;19.224;2022-12-18T06:59:24;47.70;;;13.00;;
75246;SDS011;63844;50.042;19.224;2022-12-18T07:01:50;57.20;;;14.50;;
75246;SDS011;63844;50.042;19.224;2022-12-18T07:04:17;39.50;;;10.90;;
75246;SDS011;63844;50.042;19.224;2022-12-18T07:06:43;40.40;;;11.60;;
75246;SDS011;63844;50.042;19.224;2022-12-18T07:09:10;37.50;;;8.40;;
75246;SDS011;63844;50.042;19.224;2022-12-18T07:11:36;40.30;;;11.10;;
75246;SDS011;63844;50.042;19.224;2022-12-18T07:14:02;37.10;;;10.90;;
75246;SDS011;63844;50.042;19.224;2022-12-18T07:16:29;41.30;;;11.50;;
75246;SDS011;63844;50.042;19.224;2022-12-18T07:18:55;37.70;;;10.80;;
75246;SDS011;63844;50.042;19.224;2022-12-18T07:21:22;41.80;;;12.80;;
75246;SDS011;63844;50.042;19.224;2022-12-18T07:23:50;43.60;;;13.90;;
75246;SDS011;63844;50.042;19.224;2022-12-18T07:26:17;36.90;;;12.30;;
75246;SDS011;63844;50.042;19.224;2022-12-18T07:28:46;35.70;;;10.20;;
75246;SDS011;63844;50.042;19.224;2022-12-18T07:31:14;33.80;;;9.60;;
75246;SDS011;63844;50.042;19.224;2022-12-18T07:33:43;33.70;;;10.10;;
75246;SDS011;63844;50.042;19.224;2022-12-18T07:36:11;37.90;;;10.70;;
75246;SDS011;63844;50.042;19.224;2022-12-18T07:38:37;38.90;;;11.20;;
75246;SDS011;63844;50.042;19.224;2022-12-18T07:41:08;45.40;;;12.80;;
75246;SDS011;63844;50.042;19.224;2022-12-18T07:43:36;38.30;;;12.20;;
75246;SDS011;63844;50.042;19.224;2022-12-18T07:46:04;43.60;;;12.80;;
75246;SDS011;63844;50.042;19.224;2022-12-18T07:48:31;45.00;;;13.30;;
75246;SDS011;63844;50.042;19.224;2022-12-18T07:51:01;36.30;;;10.00;;
75246;SDS011;63844;50.042;19.224;2022-12-18T07:53:30;38.50;;;9.90;;
75246;SDS011;63844;50.042;19.224;2022-12-18T07:55:58;26.70;;;7.40;;
75246;SDS011;63844;50.042;19.224;2022-12-18T07:58:25;44.50;;;12.10;;
75246;SDS011;63844;50.042;19.224;2022-12-18T08:00:52;53.70;;;15.00;;
75246;SDS011;63844;50.042;19.224;2022-12-18T08:03:19;56.40;;;14.40;;
75246;SDS011;63844;50.042;19.224;2022-12-18T08:05:45;48.50;;;12.90;;
75246;SDS011;63844;50.042;19.224;2022-12-18T08:08:12;48.90;;;13.80;;
75246;SDS011;63844;50.042;19.224;2022-12-18T08:10:38;55.90;;;14.20;;
75246;SDS011;63844;50.042;19.224;2022-12-18T08:13:05;30.00;;;9.10;;
75246;SDS011;63844;50.042;19.224;2022-12-18T08:15:32;49.10;;;13.80;;
75246;SDS011;63844;50.042;19.224;2022-12-18T08:17:58;35.20;;;9.20;;
75246;SDS011;63844;50.042;19.224;2022-12-18T08:20:24;40.50;;;10.90;;
75246;SDS011;63844;50.042;19.224;2022-12-18T08:22:51;39.50;;;9.90;;
75246;SDS011;63844;50.042;19.224;2022-12-18T08:25:17;31.80;;;8.80;;
75246;SDS011;63844;50.042;19.224;2022-12-18T08:27:44;42.50;;;11.70;;
75246;SDS011;63844;50.042;19.224;2022-12-18T08:30:10;32.50;;;9.40;;
75246;SDS011;63844;50.042;19.224;2022-12-18T08:32:37;40.00;;;10.10;;
75246;SDS011;63844;50.042;19.224;2022-12-18T08:35:04;36.20;;;9.70;;
75246;SDS011;63844;50.042;19.224;2022-12-18T08:37:30;46.60;;;10.20;;
75246;SDS011;63844;50.042;19.224;2022-12-18T08:39:57;42.10;;;12.00;;
75246;SDS011;63844;50.042;19.224;2022-12-18T08:42:23;50.00;;;13.30;;
75246;SDS011;63844;50.042;19.224;2022-12-18T08:45:08;51.90;;;13.90;;
75246;SDS011;63844;50.042;19.224;2022-12-18T08:47:35;53.90;;;13.90;;
75246;SDS011;63844;50.042;19.224;2022-12-18T08:50:01;41.60;;;13.80;;
75246;SDS011;63844;50.042;19.224;2022-12-18T08:52:28;30.00;;;7.40;;
75246;SDS011;63844;50.042;19.224;2022-12-18T08:54:57;46.60;;;12.10;;
75246;SDS011;63844;50.042;19.224;2022-12-18T08:57:24;45.70;;;12.90;;
75246;SDS011;63844;50.042;19.224;2022-12-18T08:59:50;26.90;;;7.50;;
75246;SDS011;63844;50.042;19.224;2022-12-18T09:02:17;30.60;;;8.50;;
75246;SDS011;63844;50.042;19.224;2022-12-18T09:04:46;47.80;;;11.10;;
75246;SDS011;63844;50.042;19.224;2022-12-18T09:07:13;41.30;;;11.80;;
75246;SDS011;63844;50.042;19.224;2022-12-18T09:09:40;47.60;;;11.60;;
75246;SDS011;63844;50.042;19.224;2022-12-18T09:12:06;46.50;;;11.20;;
75246;SDS011;63844;50.042;19.224;2022-12-18T09:14:33;42.10;;;11.20;;
75246;SDS011;63844;50.042;19.224;2022-12-18T09:17:00;41.10;;;12.90;;
75246;SDS011;63844;50.042;19.224;2022-12-18T09:19:26;49.70;;;11.40;;
75246;SDS011;63844;50.042;19.224;2022-12-18T09:21:53;53.60;;;16.90;;
75246;SDS011;63844;50.042;19.224;2022-12-18T09:24:19;48.80;;;12.20;;
75246;SDS011;63844;50.042;19.224;2022-12-18T09:26:46;57.60;;;18.30;;
75246;SDS011;63844;50.042;19.224;2022-12-18T09:29:12;36.60;;;11.10;;
75246;SDS011;63844;50.042;19.224;2022-12-18T09:31:38;50.10;;;14.60;;
75246;SDS011;63844;50.042;19.224;2022-12-18T09:34:05;48.30;;;14.10;;
75246;SDS011;63844;50.042;19.224;2022-12-18T09:36:32;54.60;;;17.20;;
75246;SDS011;63844;50.042;19.224;2022-12-18T09:38:59;53.70;;;15.70;;
75246;SDS011;63844;50.042;19.224;2022-12-18T09:43:59;50.60;;;14.80;;
75246;SDS011;63844;50.042;19.224;2022-12-18T09:46:31;51.80;;;14.10;;
75246;SDS011;63844;50.042;19.224;2022-12-18T09:49:02;57.10;;;17.90;;
75246;SDS011;63844;50.042;19.224;2022-12-18T09:51:42;55.40;;;16.20;;
75246;SDS011;63844;50.042;19.224;2022-12-18T09:54:17;67.60;;;22.70;;
75246;SDS011;63844;50.042;19.224;2022-12-18T09:56:47;45.60;;;16.10;;
75246;SDS011;63844;50.042;19.224;2022-12-18T09:59:20;56.90;;;15.80;;
75246;SDS011;63844;50.042;19.224;2022-12-18T10:01:50;56.90;;;15.30;;
75246;SDS011;63844;50.042;19.224;2022-12-18T10:04:17;51.80;;;14.60;;
75246;SDS011;63844;50.042;19.224;2022-12-18T10:09:37;50.70;;;13.20;;
75246;SDS011;63844;50.042;19.224;2022-12-18T10:12:09;56.00;;;17.30;;
75246;SDS011;63844;50.042;19.224;2022-12-18T10:20:27;42.30;;;12.70;;
75246;SDS011;63844;50.042;19.224;2022-12-18T10:25:51;44.50;;;12.30;;
75246;SDS011;63844;50.042;19.224;2022-12-18T10:28:21;34.70;;;9.10;;
75246;SDS011;63844;50.042;19.224;2022-12-18T10:30:50;28.40;;;7.80;;
75246;SDS011;63844;50.042;19.224;2022-12-18T10:33:18;53.30;;;13.00;;
75246;SDS011;63844;50.042;19.224;2022-12-18T10:35:47;39.40;;;11.60;;
75246;SDS011;63844;50.042;19.224;2022-12-18T10:40:53;24.70;;;6.90;;
75246;SDS011;63844;50.042;19.224;2022-12-18T10:43:26;28.10;;;6.30;;
75246;SDS011;63844;50.042;19.224;2022-12-18T10:48:32;37.50;;;11.40;;
75246;SDS011;63844;50.042;19.224;2022-12-18T10:51:02;31.00;;;8.10;;
75246;SDS011;63844;50.042;19.224;2022-12-18T10:53:30;47.60;;;11.90;;
75246;SDS011;63844;50.042;19.224;2022-12-18T10:56:00;43.60;;;11.40;;
75246;SDS011;63844;50.042;19.224;2022-12-18T11:01:05;30.80;;;7.60;;
75246;SDS011;63844;50.042;19.224;2022-12-18T11:03:35;47.30;;;13.40;;
75246;SDS011;63844;50.042;19.224;2022-12-18T11:06:10;38.20;;;12.10;;
75246;SDS011;63844;50.042;19.224;2022-12-18T11:08:43;33.50;;;10.00;;
75246;SDS011;63844;50.042;19.224;2022-12-18T11:11:23;22.50;;;6.60;;
75246;SDS011;63844;50.042;19.224;2022-12-18T11:14:13;30.40;;;9.50;;
75246;SDS011;63844;50.042;19.224;2022-12-18T11:16:47;38.60;;;10.20;;
75246;SDS011;63844;50.042;19.224;2022-12-18T11:19:26;54.10;;;15.30;;
75246;SDS011;63844;50.042;19.224;2022-12-18T11:22:00;46.30;;;12.40;;
75246;SDS011;63844;50.042;19.224;2022-12-18T11:24:30;75.20;;;22.00;;
75246;SDS011;63844;50.042;19.224;2022-12-18T11:27:01;80.70;;;23.00;;
75246;SDS011;63844;50.042;19.224;2022-12-18T11:29:33;53.30;;;16.70;;
75246;SDS011;63844;50.042;19.224;2022-12-18T11:32:22;41.70;;;11.50;;
75246;SDS011;63844;50.042;19.224;2022-12-18T11:38:12;68.80;;;18.80;;
75246;SDS011;63844;50.042;19.224;2022-12-18T11:41:02;48.60;;;15.70;;
75246;SDS011;63844;50.042;19.224;2022-12-18T11:43:49;68.70;;;18.40;;
75246;SDS011;63844;50.042;19.224;2022-12-18T11:46:23;55.50;;;16.50;;
75246;SDS011;63844;50.042;19.224;2022-12-18T11:49:03;54.80;;;15.80;;
75246;SDS011;63844;50.042;19.224;2022-12-18T11:52:14;49.90;;;15.40;;
75246;SDS011;63844;50.042;19.224;2022-12-18T11:54:20;46.60;;;14.60;;
75246;SDS011;63844;50.042;19.224;2022-12-18T11:56:58;40.90;;;13.00;;
75246;SDS011;63844;50.042;19.224;2022-12-18T12:02:37;47.90;;;14.00;;
75246;SDS011;63844;50.042;19.224;2022-12-18T12:11:08;43.60;;;13.30;;
75246;SDS011;63844;50.042;19.224;2022-12-18T12:16:59;41.80;;;11.90;;
75246;SDS011;63844;50.042;19.224;2022-12-18T12:28:12;31.70;;;8.70;;
75246;SDS011;63844;50.042;19.224;2022-12-18T12:37:11;20.70;;;6.10;;
75246;SDS011;63844;50.042;19.224;2022-12-18T12:39:40;28.50;;;9.00;;
75246;SDS011;63844;50.042;19.224;2022-12-18T12:42:20;26.30;;;8.50;;
75246;SDS011;63844;50.042;19.224;2022-12-18T12:45:18;23.90;;;8.20;;
75246;SDS011;63844;50.042;19.224;2022-12-18T12:47:49;23.30;;;7.60;;
75246;SDS011;63844;50.042;19.224;2022-12-18T12:50:19;22.10;;;6.10;;
75246;SDS011;63844;50.042;19.224;2022-12-18T12:52:49;21.00;;;5.70;;
75246;SDS011;63844;50.042;19.224;2022-12-18T12:55:28;24.10;;;7.70;;
75246;SDS011;63844;50.042;19.224;2022-12-18T12:58:05;22.20;;;6.50;;
75246;SDS011;63844;50.042;19.224;2022-12-18T13:00:41;22.40;;;6.20;;
75246;SDS011;63844;50.042;19.224;2022-12-18T13:06:02;20.80;;;5.90;;
75246;SDS011;63844;50.042;19.224;2022-12-18T13:08:51;27.70;;;7.80;;
75246;SDS011;63844;50.042;19.224;2022-12-18T13:11:35;28.20;;;7.10;;
75246;SDS011;63844;50.042;19.224;2022-12-18T13:14:40;24.80;;;7.50;;
75246;SDS011;63844;50.042;19.224;2022-12-18T13:19:49;20.00;;;6.00;;
75246;SDS011;63844;50.042;19.224;2022-12-18T13:22:22;28.40;;;7.80;;
75246;SDS011;63844;50.042;19.224;2022-12-18T13:24:50;25.80;;;8.10;;
75246;SDS011;63844;50.042;19.224;2022-12-18T13:40:57;22.40;;;7.10;;
75246;SDS011;63844;50.042;19.224;2022-12-18T13:43:40;17.80;;;5.50;;
75246;SDS011;63844;50.042;19.224;2022-12-18T13:49:03;26.10;;;7.80;;
75246;SDS011;63844;50.042;19.224;2022-12-18T13:51:49;30.80;;;8.40;;
75246;SDS011;63844;50.042;19.224;2022-12-18T13:54:25;25.00;;;8.30;;
75246;SDS011;63844;50.042;19.224;2022-12-18T13:56:59;24.70;;;7.70;;
75246;SDS011;63844;50.042;19.224;2022-12-18T13:59:36;23.10;;;8.50;;
75246;SDS011;63844;50.042;19.224;2022-12-18T14:02:13;33.10;;;9.80;;
75246;SDS011;63844;50.042;19.224;2022-12-18T14:04:44;36.50;;;10.00;;
75246;SDS011;63844;50.042;19.224;2022-12-18T14:07:12;38.20;;;11.60;;
75246;SDS011;63844;50.042;19.224;2022-12-18T14:09:43;41.00;;;11.40;;
75246;SDS011;63844;50.042;19.224;2022-12-18T14:12:31;42.70;;;13.10;;
75246;SDS011;63844;50.042;19.224;2022-12-18T14:15:21;47.80;;;13.20;;
75246;SDS011;63844;50.042;19.224;2022-12-18T14:18:12;42.90;;;13.50;;
75246;SDS011;63844;50.042;19.224;2022-12-18T14:20:47;42.80;;;13.10;;
75246;SDS011;63844;50.042;19.224;2022-12-18T14:23:36;46.90;;;14.20;;
75246;SDS011;63844;50.042;19.224;2022-12-18T14:26:21;43.60;;;13.80;;
75246;SDS011;63844;50.042;19.224;2022-12-18T14:28:56;49.00;;;14.40;;
75246;SDS011;63844;50.042;19.224;2022-12-18T14:31:25;51.50;;;15.50;;
75246;SDS011;63844;50.042;19.224;2022-12-18T14:33:53;51.20;;;15.40;;
75246;SDS011;63844;50.042;19.224;2022-12-18T14:36:20;51.60;;;16.30;;
75246;SDS011;63844;50.042;19.224;2022-12-18T14:38:50;45.30;;;14.50;;
75246;SDS011;63844;50.042;19.224;2022-12-18T14:41:18;48.20;;;14.90;;
75246;SDS011;63844;50.042;19.224;2022-12-18T14:43:47;52.40;;;16.70;;
75246;SDS011;63844;50.042;19.224;2022-12-18T14:51:57;48.10;;;14.30;;
75246;SDS011;63844;50.042;19.224;2022-12-18T14:54:28;46.20;;;15.20;;
75246;SDS011;63844;50.042;19.224;2022-12-18T14:57:06;38.60;;;12.40;;
75246;SDS011;63844;50.042;19.224;2022-12-18T14:59:49;51.40;;;14.20;;
75246;SDS011;63844;50.042;19.224;2022-12-18T15:02:21;49.40;;;14.50;;
75246;SDS011;63844;50.042;19.224;2022-12-18T15:04:59;47.10;;;14.50;;
75246;SDS011;63844;50.042;19.224;2022-12-18T15:10:30;47.10;;;13.70;;
75246;SDS011;63844;50.042;19.224;2022-12-18T15:17:59;44.10;;;13.50;;
75246;SDS011;63844;50.042;19.224;2022-12-18T15:22:53;50.10;;;13.30;;
75246;SDS011;63844;50.042;19.224;2022-12-18T15:25:32;41.90;;;13.70;;
75246;SDS011;63844;50.042;19.224;2022-12-18T15:28:04;43.20;;;13.80;;
75246;SDS011;63844;50.042;19.224;2022-12-18T15:31:01;45.80;;;13.30;;
75246;SDS011;63844;50.042;19.224;2022-12-18T15:33:35;46.90;;;14.00;;
75246;SDS011;63844;50.042;19.224;2022-12-18T15:36:04;51.70;;;15.80;;
75246;SDS011;63844;50.042;19.224;2022-12-18T15:38:41;45.70;;;14.10;;
75246;SDS011;63844;50.042;19.224;2022-12-18T15:41:13;45.70;;;15.50;;
75246;SDS011;63844;50.042;19.224;2022-12-18T15:43:40;59.60;;;17.10;;
75246;SDS011;63844;50.042;19.224;2022-12-18T15:46:17;57.80;;;17.40;;
75246;SDS011;63844;50.042;19.224;2022-12-18T15:48:53;50.20;;;16.60;;
75246;SDS011;63844;50.042;19.224;2022-12-18T15:51:23;55.00;;;18.40;;
75246;SDS011;63844;50.042;19.224;2022-12-18T15:53:53;65.40;;;20.50;;
75246;SDS011;63844;50.042;19.224;2022-12-18T15:56:21;74.30;;;22.40;;
75246;SDS011;63844;50.042;19.224;2022-12-18T15:59:08;63.90;;;20.90;;
75246;SDS011;63844;50.042;19.224;2022-12-18T16:01:38;72.40;;;22.00;;
75246;SDS011;63844;50.042;19.224;2022-12-18T16:04:06;90.10;;;26.00;;
75246;SDS011;63844;50.042;19.224;2022-12-18T16:06:32;83.60;;;22.90;;
75246;SDS011;63844;50.042;19.224;2022-12-18T16:08:59;93.20;;;27.60;;
75246;SDS011;63844;50.042;19.224;2022-12-18T16:11:27;114.10;;;33.40;;
75246;SDS011;63844;50.042;19.224;2022-12-18T16:14:05;112.60;;;32.50;;
75246;SDS011;63844;50.042;19.224;2022-12-18T16:16:51;100.50;;;31.80;;
75246;SDS011;63844;50.042;19.224;2022-12-18T16:19:19;114.40;;;34.80;;
75246;SDS011;63844;50.042;19.224;2022-12-18T16:21:47;91.20;;;29.80;;
75246;SDS011;63844;50.042;19.224;2022-12-18T16:24:17;100.00;;;32.50;;
75246;SDS011;63844;50.042;19.224;2022-12-18T16:26:44;97.80;;;30.00;;